createdAt,value
2018-12-29T00:01:37.537Z,87.05
2018-12-29T00:04:08.010Z,87.17
2018-12-29T00:06:38.625Z,87.44
2018-12-29T00:09:09.492Z,87.75
2018-12-29T00:11:40.021Z,88.05
2018-12-29T00:14:10.589Z,88.22
2018-12-29T00:16:41.076Z,88.33
2018-12-29T00:19:11.645Z,88.36
2018-12-29T00:21:42.258Z,88.38
2018-12-29T00:24:12.849Z,88.48
2018-12-29T00:26:43.367Z,88.60
2018-12-29T00:29:14.054Z,88.56
2018-12-29T00:31:44.748Z,88.56
2018-12-29T00:34:15.338Z,88.60
2018-12-29T00:36:45.829Z,88.71
2018-12-29T00:39:16.332Z,88.57
2018-12-29T00:41:47.609Z,88.39
2018-12-29T00:44:18.071Z,88.37
2018-12-29T00:46:48.673Z,88.41
2018-12-29T00:49:19.247Z,88.32
2018-12-29T00:51:49.718Z,88.16
2018-12-29T00:54:20.216Z,88.14
2018-12-29T00:56:50.699Z,87.83
2018-12-29T00:59:21.144Z,87.73
2018-12-29T01:01:51.669Z,87.73
2018-12-29T01:04:22.162Z,87.61
2018-12-29T01:06:52.849Z,87.61
2018-12-29T01:09:23.188Z,87.55
2018-12-29T01:11:53.806Z,87.25
2018-12-29T01:14:24.224Z,87.36
2018-12-29T01:16:54.833Z,87.37
2018-12-29T01:19:25.470Z,87.29
2018-12-29T01:21:56.073Z,87.24
2018-12-29T01:24:26.637Z,87.24
2018-12-29T01:26:57.198Z,87.43
2018-12-29T01:29:27.808Z,87.58
2018-12-29T01:31:58.247Z,87.68
2018-12-29T01:34:28.793Z,87.71
2018-12-29T01:36:59.398Z,87.80
2018-12-29T01:39:29.822Z,87.83
2018-12-29T01:42:00.359Z,87.93
2018-12-29T01:44:30.968Z,87.99
2018-12-29T01:47:01.458Z,87.99
2018-12-29T01:49:31.919Z,87.85
2018-12-29T01:52:02.547Z,87.84
2018-12-29T01:54:33.220Z,87.73
2018-12-29T01:57:03.713Z,87.78
2018-12-29T01:59:34.239Z,87.76
2018-12-29T02:02:04.954Z,87.68
2018-12-29T02:04:35.500Z,87.39
2018-12-29T02:07:06.098Z,86.92
2018-12-29T02:09:36.619Z,86.39
2018-12-29T02:12:26.248Z,86.08
2018-12-29T02:14:57.096Z,85.53
2018-12-29T02:17:27.808Z,84.98
2018-12-29T02:19:58.277Z,84.54
2018-12-29T02:22:28.819Z,84.41
2018-12-29T02:24:59.249Z,84.44
2018-12-29T02:27:29.789Z,84.47
2018-12-29T02:30:00.367Z,84.77
2018-12-29T02:32:30.771Z,84.87
2018-12-29T02:35:01.337Z,85.35
2018-12-29T02:37:31.797Z,86.04
2018-12-29T02:40:02.154Z,86.88
2018-12-29T02:42:32.538Z,87.46
2018-12-29T02:45:02.969Z,87.54
2018-12-29T02:47:33.389Z,87.84
2018-12-29T02:50:03.797Z,87.85
2018-12-29T02:52:34.318Z,88.01
2018-12-29T02:55:05.093Z,88.14
2018-12-29T02:57:35.587Z,88.50
2018-12-29T03:00:06.443Z,88.48
2018-12-29T03:02:37.257Z,88.48
2018-12-29T03:05:07.888Z,88.49
2018-12-29T03:07:38.293Z,88.54
2018-12-29T03:10:08.810Z,88.63
2018-12-29T03:12:39.377Z,88.75
2018-12-29T03:15:10.003Z,88.80
2018-12-29T03:17:40.455Z,88.90
2018-12-29T03:20:11.018Z,88.93
2018-12-29T03:22:41.500Z,88.90
2018-12-29T03:25:12.054Z,88.81
2018-12-29T03:27:42.830Z,88.71
2018-12-29T03:30:13.363Z,88.55
2018-12-29T03:32:43.890Z,88.41
2018-12-29T03:35:14.692Z,88.34
2018-12-29T03:37:45.204Z,88.47
2018-12-29T03:40:15.801Z,88.59
2018-12-29T03:42:46.508Z,88.58
2018-12-29T03:45:17.159Z,88.56
2018-12-29T03:47:48.060Z,88.59
2018-12-29T03:50:18.681Z,88.60
2018-12-29T03:52:49.121Z,88.78
2018-12-29T03:55:19.718Z,88.86
2018-12-29T03:57:50.471Z,89.11
2018-12-29T04:00:21.012Z,89.31
2018-12-29T04:02:51.700Z,89.52
2018-12-29T04:05:22.204Z,89.77
2018-12-29T04:07:52.761Z,89.92
2018-12-29T04:10:23.357Z,90.06
2018-12-29T04:12:59.359Z,90.10
2018-12-29T04:15:30.066Z,90.15
2018-12-29T04:18:00.522Z,90.30
2018-12-29T04:20:31.038Z,90.41
2018-12-29T04:23:01.680Z,90.55
2018-12-29T04:25:32.173Z,90.63
2018-12-29T04:28:03.000Z,90.69
2018-12-29T04:30:33.569Z,90.73
2018-12-29T04:33:04.098Z,90.81
2018-12-29T04:35:34.497Z,90.78
2018-12-29T04:38:05.046Z,90.78
2018-12-29T04:40:35.500Z,90.90
2018-12-29T04:43:06.041Z,90.87
2018-12-29T04:45:36.608Z,90.92
2018-12-29T04:48:07.437Z,90.89
2018-12-29T04:50:38.026Z,90.88
2018-12-29T04:53:08.472Z,90.81
2018-12-29T04:55:39.010Z,90.81
2018-12-29T04:58:09.488Z,90.80
2018-12-29T05:00:40.050Z,90.84
2018-12-29T05:03:10.571Z,90.89
2018-12-29T05:05:41.116Z,90.85
2018-12-29T05:08:11.890Z,90.86
2018-12-29T05:10:42.282Z,90.89
2018-12-29T05:13:12.886Z,90.88
2018-12-29T05:15:43.266Z,90.88
2018-12-29T05:18:13.841Z,90.85
2018-12-29T05:20:44.412Z,90.79
2018-12-29T05:23:15.059Z,90.84
2018-12-29T05:25:45.477Z,90.95
2018-12-29T05:28:15.972Z,91.00
2018-12-29T05:30:46.493Z,91.12
2018-12-29T05:33:16.853Z,91.19
2018-12-29T05:35:47.371Z,91.27
2018-12-29T05:38:17.974Z,91.31
2018-12-29T05:40:48.577Z,91.35
2018-12-29T05:43:19.056Z,91.37
2018-12-29T05:45:49.407Z,91.30
2018-12-29T05:48:19.840Z,91.29
2018-12-29T05:50:50.258Z,91.34
2018-12-29T05:53:20.786Z,91.34
2018-12-29T05:55:51.262Z,91.33
2018-12-29T05:58:21.659Z,91.36
2018-12-29T06:00:52.187Z,91.36
2018-12-29T06:03:22.766Z,91.37
2018-12-29T06:05:53.124Z,91.33
2018-12-29T06:08:23.473Z,91.37
2018-12-29T06:10:54.632Z,91.31
2018-12-29T06:13:25.076Z,91.27
2018-12-29T06:15:55.622Z,91.28
2018-12-29T06:18:26.180Z,91.22
2018-12-29T06:20:56.750Z,91.17
2018-12-29T06:23:27.330Z,91.15
2018-12-29T06:25:57.760Z,91.12
2018-12-29T06:28:28.279Z,91.10
2018-12-29T06:30:58.717Z,91.15
2018-12-29T06:33:29.147Z,91.22
2018-12-29T06:35:59.649Z,91.20
2018-12-29T06:38:30.006Z,91.23
2018-12-29T06:41:00.677Z,91.26
2018-12-29T06:43:31.086Z,91.25
2018-12-29T06:46:01.618Z,91.28
2018-12-29T06:48:32.039Z,91.31
2018-12-29T06:51:02.455Z,91.32
2018-12-29T06:53:32.882Z,91.38
2018-12-29T06:56:03.304Z,91.43
2018-12-29T06:58:33.732Z,91.47
2018-12-29T07:01:04.265Z,91.52
2018-12-29T07:03:34.694Z,91.59
2018-12-29T07:06:05.109Z,91.61
2018-12-29T07:08:35.588Z,91.67
2018-12-29T07:11:06.249Z,91.67
2018-12-29T07:13:36.879Z,91.75
2018-12-29T07:16:07.476Z,91.81
2018-12-29T07:18:38.081Z,91.85
2018-12-29T07:21:08.587Z,91.86
2018-12-29T07:23:39.020Z,91.88
2018-12-29T07:26:09.453Z,91.96
2018-12-29T07:28:40.287Z,91.96
2018-12-29T07:31:12.655Z,92.00
2018-12-29T07:33:43.143Z,92.02
2018-12-29T07:36:13.939Z,92.03
2018-12-29T07:38:44.394Z,92.04
2018-12-29T07:41:14.940Z,92.04
2018-12-29T07:43:45.529Z,92.04
2018-12-29T07:46:16.072Z,91.99
2018-12-29T07:48:46.616Z,91.94
2018-12-29T07:51:17.096Z,91.90
2018-12-29T07:53:47.668Z,91.85
2018-12-29T07:56:18.024Z,91.79
2018-12-29T07:58:48.527Z,91.73
2018-12-29T08:01:19.088Z,91.68
2018-12-29T08:03:49.707Z,91.63
2018-12-29T08:06:20.132Z,91.56
2018-12-29T08:08:50.595Z,91.50
2018-12-29T08:11:21.031Z,91.45
2018-12-29T08:13:51.667Z,91.46
2018-12-29T08:16:22.137Z,91.43
2018-12-29T08:18:52.939Z,91.38
2018-12-29T08:21:23.862Z,91.34
2018-12-29T08:23:54.364Z,91.35
2018-12-29T08:26:25.037Z,91.38
2018-12-29T08:28:55.569Z,91.41
2018-12-29T08:31:25.978Z,91.42
2018-12-29T08:33:56.449Z,91.42
2018-12-29T08:36:26.986Z,91.38
2018-12-29T08:38:57.356Z,91.38
2018-12-29T08:41:27.929Z,91.38
2018-12-29T08:43:58.506Z,91.41
2018-12-29T08:46:29.186Z,91.46
2018-12-29T08:48:59.795Z,91.48
2018-12-29T08:51:30.413Z,91.54
2018-12-29T08:54:00.920Z,91.56
2018-12-29T08:56:31.446Z,91.59
2018-12-29T08:59:01.879Z,91.62
2018-12-29T09:01:32.348Z,91.60
2018-12-29T09:04:02.712Z,91.63
2018-12-29T09:06:33.061Z,91.63
2018-12-29T09:09:04.506Z,91.66
2018-12-29T09:11:34.914Z,91.68
2018-12-29T09:14:06.243Z,91.71
2018-12-29T09:16:37.242Z,91.74
2018-12-29T09:19:07.780Z,91.80
2018-12-29T09:21:38.456Z,91.82
2018-12-29T09:24:09.179Z,91.85
2018-12-29T09:26:41.356Z,91.87
2018-12-29T09:29:12.147Z,91.89
2018-12-29T09:31:42.692Z,91.84
2018-12-29T09:34:13.123Z,91.84
2018-12-29T09:36:43.803Z,91.84
2018-12-29T09:39:15.284Z,91.84
2018-12-29T09:41:45.927Z,91.83
2018-12-29T09:44:16.537Z,91.78
2018-12-29T09:46:47.185Z,91.79
2018-12-29T09:49:17.727Z,91.77
2018-12-29T09:51:48.396Z,91.77
2018-12-29T09:54:19.544Z,91.77
2018-12-29T09:56:50.216Z,91.71
2018-12-29T09:59:20.797Z,91.72
2018-12-29T10:01:51.528Z,91.68
2018-12-29T10:04:22.055Z,91.60
2018-12-29T10:06:52.645Z,91.55
2018-12-29T10:09:23.096Z,91.55
2018-12-29T10:11:53.613Z,91.59
2018-12-29T10:14:24.159Z,91.60
2018-12-29T10:16:54.915Z,91.61
2018-12-29T10:19:25.499Z,91.52
2018-12-29T10:21:56.196Z,91.53
2018-12-29T10:24:26.901Z,91.51
2018-12-29T10:26:57.462Z,91.58
2018-12-29T10:29:29.397Z,91.62
2018-12-29T10:32:00.001Z,91.70
2018-12-29T10:34:30.777Z,91.65
2018-12-29T10:37:02.118Z,91.65
2018-12-29T10:39:32.709Z,91.71
2018-12-29T10:42:03.187Z,91.61
2018-12-29T10:44:33.871Z,91.63
2018-12-29T10:47:04.706Z,91.58
2018-12-29T10:49:35.162Z,91.48
2018-12-29T10:52:05.786Z,91.44
2018-12-29T10:54:36.269Z,91.41
2018-12-29T10:57:06.728Z,91.33
2018-12-29T10:59:37.326Z,91.29
2018-12-29T11:02:07.995Z,91.25
2018-12-29T11:04:38.453Z,91.16
2018-12-29T11:07:08.957Z,91.01
2018-12-29T11:09:39.425Z,90.96
2018-12-29T11:12:09.967Z,90.90
2018-12-29T11:14:40.537Z,90.91
2018-12-29T11:17:11.026Z,90.93
2018-12-29T11:19:41.647Z,90.94
2018-12-29T11:22:12.130Z,90.93
2018-12-29T11:24:42.828Z,90.87
2018-12-29T11:27:13.359Z,90.58
2018-12-29T11:29:43.876Z,90.51
2018-12-29T11:32:14.396Z,90.55
2018-12-29T11:34:45.096Z,90.57
2018-12-29T11:37:15.611Z,90.70
2018-12-29T11:39:46.066Z,90.74
2018-12-29T11:42:16.575Z,90.84
2018-12-29T11:44:47.167Z,90.87
2018-12-29T11:47:17.746Z,90.99
2018-12-29T11:49:48.420Z,91.01
2018-12-29T11:52:18.969Z,90.98
2018-12-29T11:54:49.580Z,91.01
2018-12-29T11:57:20.099Z,91.04
2018-12-29T11:59:50.566Z,91.07
2018-12-29T12:02:24.571Z,91.09
2018-12-29T12:04:53.355Z,91.05
2018-12-29T12:07:24.045Z,91.04
2018-12-29T12:09:54.814Z,91.01
2018-12-29T12:12:25.424Z,90.96
2018-12-29T12:14:56.422Z,90.90
2018-12-29T12:17:27.096Z,90.85
2018-12-29T12:19:57.727Z,90.85
2018-12-29T12:22:28.366Z,90.89
2018-12-29T12:24:59.135Z,90.94
2018-12-29T12:27:29.685Z,90.89
2018-12-29T12:30:00.666Z,90.92
2018-12-29T12:32:31.347Z,91.02
2018-12-29T12:35:02.320Z,91.05
2018-12-29T12:37:32.820Z,91.11
2018-12-29T12:40:03.446Z,91.14
2018-12-29T12:42:34.168Z,91.14
2018-12-29T12:45:05.327Z,91.13
2018-12-29T12:47:35.981Z,91.13
2018-12-29T12:50:06.781Z,91.14
2018-12-29T12:52:37.577Z,91.16
2018-12-29T12:55:08.406Z,91.06
2018-12-29T12:57:39.075Z,91.09
2018-12-29T13:00:10.858Z,91.08
2018-12-29T13:02:41.285Z,91.02
2018-12-29T13:05:11.926Z,90.91
2018-12-29T13:07:42.486Z,90.78
2018-12-29T13:10:13.097Z,90.67
2018-12-29T13:12:43.616Z,90.68
2018-12-29T13:15:14.181Z,90.71
2018-12-29T13:17:44.746Z,90.74
2018-12-29T13:20:15.445Z,90.71
2018-12-29T13:22:46.309Z,90.72
2018-12-29T13:25:17.034Z,90.72
2018-12-29T13:27:47.730Z,90.70
2018-12-29T13:30:18.319Z,90.74
2018-12-29T13:32:48.962Z,90.74
2018-12-29T13:35:19.956Z,90.64
2018-12-29T13:37:50.586Z,90.68
2018-12-29T13:40:21.184Z,90.55
2018-12-29T13:42:51.859Z,90.59
2018-12-29T13:45:22.334Z,90.53
2018-12-29T13:47:53.090Z,90.51
2018-12-29T13:50:23.739Z,90.52
2018-12-29T13:52:54.348Z,90.54
2018-12-29T13:55:24.975Z,90.49
2018-12-29T13:57:55.575Z,90.52
2018-12-29T14:00:26.204Z,90.59
2018-12-29T14:02:56.794Z,90.66
2018-12-29T14:05:27.796Z,90.65
2018-12-29T14:07:58.325Z,90.62
2018-12-29T14:10:28.956Z,90.61
2018-12-29T14:12:59.510Z,90.62
2018-12-29T14:15:30.145Z,90.57
2018-12-29T14:18:00.818Z,90.56
2018-12-29T14:20:31.354Z,90.47
2018-12-29T14:23:01.917Z,90.46
2018-12-29T14:25:32.639Z,90.55
2018-12-29T14:28:03.319Z,90.56
2018-12-29T14:30:33.790Z,90.50
2018-12-29T14:33:04.373Z,90.44
2018-12-29T14:35:35.179Z,90.48
2018-12-29T14:38:06.140Z,90.50
2018-12-29T14:40:36.795Z,90.45
2018-12-29T14:43:07.289Z,90.34
2018-12-29T14:45:37.918Z,90.27
2018-12-29T14:48:08.970Z,90.18
2018-12-29T14:50:39.462Z,90.09
2018-12-29T14:53:10.025Z,89.93
2018-12-29T14:55:40.595Z,89.81
2018-12-29T14:58:11.208Z,89.72
2018-12-29T15:00:41.745Z,89.65
2018-12-29T15:03:12.238Z,89.52
2018-12-29T15:05:43.045Z,89.57
2018-12-29T15:08:13.596Z,89.57
2018-12-29T15:10:44.052Z,89.57
2018-12-29T15:13:14.816Z,89.69
2018-12-29T15:15:45.420Z,89.70
2018-12-29T15:18:16.385Z,89.80
2018-12-29T15:20:47.523Z,89.86
2018-12-29T15:23:18.669Z,89.90
2018-12-29T15:25:49.305Z,89.90
2018-12-29T15:28:20.000Z,89.86
2018-12-29T15:30:50.886Z,89.91
2018-12-29T15:33:21.630Z,89.97
2018-12-29T15:35:52.281Z,90.09
2018-12-29T15:38:22.779Z,90.22
2018-12-29T15:40:53.859Z,90.21
2018-12-29T15:43:24.396Z,89.98
2018-12-29T15:45:54.857Z,89.72
2018-12-29T15:48:25.751Z,89.38
2018-12-29T15:50:56.286Z,89.17
2018-12-29T15:53:26.845Z,89.01
2018-12-29T15:55:57.675Z,89.11
2018-12-29T15:58:28.266Z,89.31
2018-12-29T16:00:58.880Z,89.41
2018-12-29T16:03:29.435Z,89.40
2018-12-29T16:06:00.275Z,89.54
2018-12-29T16:08:31.186Z,89.63
2018-12-29T16:11:01.765Z,89.75
2018-12-29T16:13:32.468Z,89.85
2018-12-29T16:16:03.096Z,89.98
2018-12-29T16:18:33.967Z,90.13
2018-12-29T16:21:04.906Z,90.23
2018-12-29T16:23:35.715Z,90.28
2018-12-29T16:26:12.675Z,90.41
2018-12-29T16:28:38.705Z,90.40
2018-12-29T16:31:09.548Z,90.36
2018-12-29T16:33:41.769Z,90.40
2018-12-29T16:36:12.698Z,90.37
2018-12-29T16:38:43.250Z,90.40
2018-12-29T16:41:14.039Z,90.50
2018-12-29T16:43:44.665Z,90.58
2018-12-29T16:46:15.283Z,90.65
2018-12-29T16:48:45.915Z,90.74
2018-12-29T16:51:16.834Z,90.83
2018-12-29T16:53:47.733Z,90.95
2018-12-29T16:56:18.284Z,91.04
2018-12-29T16:58:48.856Z,91.09
2018-12-29T17:01:19.428Z,91.13
2018-12-29T17:03:50.274Z,91.20
2018-12-29T17:06:20.759Z,91.28
2018-12-29T17:08:51.335Z,91.35
2018-12-29T17:11:21.965Z,91.39
2018-12-29T17:13:52.496Z,91.46
2018-12-29T17:16:23.046Z,91.50
2018-12-29T17:18:53.735Z,91.56
2018-12-29T17:21:24.368Z,91.63
2018-12-29T17:23:55.040Z,91.71
2018-12-29T17:26:26.089Z,91.74
2018-12-29T17:28:56.711Z,91.81
2018-12-29T17:31:27.476Z,91.85
2018-12-29T17:33:58.135Z,91.88
2018-12-29T17:36:29.145Z,91.86
2018-12-29T17:38:59.761Z,91.87
2018-12-29T17:41:30.399Z,91.84
2018-12-29T17:44:01.114Z,91.81
2018-12-29T17:46:31.965Z,91.77
2018-12-29T17:49:02.615Z,91.75
2018-12-29T17:51:33.273Z,91.75
2018-12-29T17:54:03.987Z,91.70
2018-12-29T17:56:36.235Z,91.68
2018-12-29T17:59:07.202Z,91.67
2018-12-29T18:01:37.866Z,91.63
2018-12-29T18:04:08.436Z,91.60
2018-12-29T18:06:39.134Z,91.59
2018-12-29T18:09:09.812Z,91.57
2018-12-29T18:11:40.401Z,91.55
2018-12-29T18:14:11.033Z,91.53
2018-12-29T18:16:41.855Z,91.52
2018-12-29T18:19:12.931Z,91.52
2018-12-29T18:21:43.460Z,91.52
2018-12-29T18:24:14.100Z,91.55
2018-12-29T18:26:44.830Z,91.56
2018-12-29T18:29:16.005Z,91.57
2018-12-29T18:31:46.714Z,91.57
2018-12-29T18:34:17.417Z,91.58
2018-12-29T18:36:48.287Z,91.57
2018-12-29T18:39:19.037Z,91.58
2018-12-29T18:41:49.696Z,91.61
2018-12-29T18:44:20.437Z,91.57
2018-12-29T18:46:51.494Z,91.55
2018-12-29T18:49:22.167Z,91.54
2018-12-29T18:51:52.920Z,91.54
2018-12-29T18:54:23.521Z,91.56
2018-12-29T18:56:54.188Z,91.51
2018-12-29T18:59:24.885Z,91.52
2018-12-29T19:01:57.820Z,91.48
2018-12-29T19:04:28.133Z,91.46
2018-12-29T19:06:58.917Z,91.43
2018-12-29T19:09:30.684Z,91.41
2018-12-29T19:12:01.501Z,91.38
2018-12-29T19:14:32.493Z,91.32
2018-12-29T19:17:03.235Z,91.25
2018-12-29T19:19:36.598Z,91.22
2018-12-29T19:22:07.455Z,91.20
2018-12-29T19:24:38.300Z,91.14
2018-12-29T19:27:09.405Z,91.06
2018-12-29T19:29:40.533Z,91.02
2018-12-29T19:32:11.585Z,90.97
2018-12-29T19:34:43.089Z,91.01
2018-12-29T19:37:15.396Z,90.92
2018-12-29T19:39:51.770Z,90.82
2018-12-29T19:42:26.484Z,90.67
2018-12-29T19:44:59.059Z,90.59
2018-12-29T19:47:29.794Z,90.53
2018-12-29T19:50:00.808Z,90.56
2018-12-29T19:52:32.569Z,90.51
2018-12-29T19:55:04.346Z,90.48
2018-12-29T19:57:35.479Z,90.46
2018-12-29T20:00:09.964Z,90.47
2018-12-29T20:02:41.122Z,90.45
2018-12-29T20:05:13.440Z,90.48
2018-12-29T20:07:44.699Z,90.42
2018-12-29T20:10:15.409Z,90.42
2018-12-29T20:12:48.902Z,90.38
2018-12-29T20:15:21.855Z,90.31
2018-12-29T20:17:55.824Z,90.19
2018-12-29T20:20:27.009Z,90.14
2018-12-29T20:22:57.814Z,90.14
2018-12-29T20:25:29.675Z,90.12
2018-12-29T20:28:04.253Z,89.97
2018-12-29T20:30:35.224Z,89.89
2018-12-29T20:33:07.114Z,89.81
2018-12-29T20:35:40.090Z,89.75
2018-12-29T20:38:10.798Z,89.67
2018-12-29T20:40:41.536Z,89.61
2018-12-29T20:43:14.070Z,89.53
2018-12-29T20:45:44.826Z,89.49
2018-12-29T20:48:20.263Z,89.57
2018-12-29T20:50:50.983Z,89.64
2018-12-29T20:53:23.955Z,89.63
2018-12-29T20:56:00.570Z,89.70
2018-12-29T20:58:38.551Z,89.70
2018-12-29T21:01:12.327Z,89.77
2018-12-29T21:03:43.231Z,89.81
2018-12-29T21:06:14.985Z,89.86
2018-12-29T21:08:45.678Z,89.93
2018-12-29T21:11:16.552Z,89.98
2018-12-29T21:13:47.330Z,90.07
2018-12-29T21:16:17.915Z,90.26
2018-12-29T21:18:56.450Z,90.30
2018-12-29T21:21:28.214Z,90.30
2018-12-29T21:23:58.993Z,90.33
2018-12-29T21:26:30.581Z,90.36
2018-12-29T21:29:02.795Z,90.41
2018-12-29T21:31:33.651Z,90.46
2018-12-29T21:34:07.563Z,90.50
2018-12-29T21:36:38.342Z,90.56
2018-12-29T21:39:10.875Z,90.58
2018-12-29T21:41:46.903Z,90.64
2018-12-29T21:44:18.789Z,90.64
2018-12-29T21:46:52.929Z,90.58
2018-12-29T21:49:23.643Z,90.53
2018-12-29T21:51:54.343Z,90.49
2018-12-29T21:54:25.034Z,90.41
2018-12-29T21:56:55.803Z,90.29
2018-12-29T21:59:26.323Z,90.22
2018-12-29T22:01:56.939Z,90.18
2018-12-29T22:04:27.555Z,90.14
2018-12-29T22:06:58.143Z,90.17
2018-12-29T22:09:28.812Z,90.22
2018-12-29T22:11:59.334Z,90.32
2018-12-29T22:14:30.194Z,90.45
2018-12-29T22:17:01.218Z,90.62
2018-12-29T22:19:32.949Z,90.74
2018-12-29T22:22:04.834Z,90.79
2018-12-29T22:24:35.494Z,90.79
2018-12-29T22:27:06.290Z,90.83
2018-12-29T22:29:37.035Z,90.90
2018-12-29T22:32:07.684Z,90.99
2018-12-29T22:34:38.329Z,91.12
2018-12-29T22:37:08.957Z,91.11
2018-12-29T22:39:39.525Z,91.14
2018-12-29T22:42:10.257Z,91.09
2018-12-29T22:44:41.010Z,91.01
2018-12-29T22:47:11.638Z,90.96
2018-12-29T22:49:42.608Z,90.86
2018-12-29T22:52:13.337Z,90.74
2018-12-29T22:54:44.032Z,90.50
2018-12-29T22:57:14.726Z,90.34
2018-12-29T22:59:45.381Z,90.15
2018-12-29T23:02:15.936Z,90.05
2018-12-29T23:04:46.685Z,89.97
2018-12-29T23:07:17.603Z,89.87
2018-12-29T23:09:48.338Z,89.74
2018-12-29T23:12:19.115Z,89.65
2018-12-29T23:14:50.548Z,89.62
2018-12-29T23:17:21.199Z,89.51
2018-12-29T23:19:51.805Z,89.42
2018-12-29T23:22:22.470Z,89.26
2018-12-29T23:24:53.110Z,89.21
2018-12-29T23:27:23.735Z,89.11
2018-12-29T23:29:54.266Z,89.01
2018-12-29T23:32:36.940Z,88.88
2018-12-29T23:35:07.744Z,88.77
2018-12-29T23:37:38.498Z,88.65
2018-12-29T23:40:09.497Z,88.39
2018-12-29T23:42:40.025Z,88.36
2018-12-29T23:45:10.551Z,88.34
2018-12-29T23:47:41.347Z,88.33
2018-12-29T23:50:12.085Z,88.17
2018-12-29T23:52:42.954Z,88.14
2018-12-29T23:55:13.476Z,88.09
2018-12-29T23:57:44.005Z,88.04
